Skip Navigation Links
NOAA logo - Click to go to the NOAA homepage
NOAA's National Weather Service
Alaska Aviation Weather Unit
  NWS logo - Click to go to the NWS homepage
Left Navbar Graphic     03 AKDT = 11 GMT

   
NOAA is celebrating 200 years of science, service, and stewardship. Visit the NOAA 200th celebration Web site to learn more.
USA.gov is the U.S. Government's official Web portal to all Federal, state and local government Web resources and services.
Facebook
NWS on Facebook

AAWU Home :: Display TAF Add Bookmark
TAF PANC 290522Z 2906/3012 30004KT P6SM -SN SCT025 BKN035
      TEMPO 2907/2909 3SM -SN BKN025
     FM290900 VRB03KT 1 1/2SM -SN BR SCT005 BKN010
     FM291800 18004KT 4SM -SN BR BKN015
     FM292100 18005KT P6SM -SN SCT015 BKN040
     FM300000 18005KT P6SM SCT040 BKN100=

METAR PANC 290553Z 00000KT 9SM -SN FEW010 BKN035 OVC110 M01/M03 A2951= PANC 290635Z 00000KT 9SM -SN FEW010 BKN025 OVC035 M01/M02 A2951= SPECI PANC 290635Z 00000KT 9SM -SN FEW010 BKN025 OVC035 M01/M02 A2951 RMK AO2 P0000 T10111022= METAR PANC 290653Z 00000KT 7SM -SN FEW010 BKN025 OVC035 M02/M03 A2951= PANC 290723Z 00000KT 2 1/2SM -SN BR FEW010 BKN025 OVC047 M01/M03 A2951= SPECI PANC 290723Z 00000KT 2 1/2SM -SN BR FEW010 BKN025 OVC047 M01/M03 A2951 RMK AO2 P0000 T10111028= METAR PANC 290753Z 00000KT 2SM -SN BR FEW010 BKN023 OVC047 M02/M03 A2952= PANC 290832Z 00000KT 2SM -SN BR FEW006 OVC026 M02/M02 A2952= SPECI PANC 290832Z 00000KT 2SM -SN BR FEW006 OVC026 M02/M02 A2952 RMK AO2 P0001 T10171022= PANC 290849Z 00000KT 1SM R07R/6000VP6000FT -SN BR FEW005 OVC016 M02/M02 A2952= PANC 290849Z 00000KT 1SM R07R/6000VP6000FT -SN BR FEW005 OVC016 M02/M02 A2952 RMK AO2 P0003= METAR PANC 290853Z 00000KT 1SM R07R/6000VP6000FT -SN BR FEW005 OVC016 M02/M02 A2952= PANC 290907Z 00000KT 1SM R07R/P6000FT -SN BR VV013 M02/M02 A2952= SPECI PANC 290907Z 00000KT 1SM R07R/P6000FT -SN BR VV013 M02/M02 A2952 RMK AO2 P0001 T10171022= PANC 290937Z 00000KT 1SM R07R/P6000FT -SN BR SCT003 OVC014 M02/M03 A2952= SPECI PANC 290937Z 00000KT 1SM R07R/P6000FT -SN BR SCT003 OVC014 M02/M03 A2952 RMK AO2 P0003 T10171028= METAR PANC 290953Z 00000KT 1SM R07R/P6000FT -SN BR SCT003 OVC014 M02/M02 A2952= PANC 291008Z 00000KT 1SM R07R/P6000FT -SN BR VV015 M02/M02 A2952= SPECI PANC 291008Z 00000KT 1SM R07R/P6000FT -SN BR VV015 M02/M02 A2952 RMK AO2 P0001 T10171022= PANC 291013Z 00000KT 3/4SM R07R/P6000FT -SN BR VV015 M02/M03 A2951= SPECI PANC 291013Z 00000KT 3/4SM R07R/P6000FT -SN BR VV015 M02/M03 A2951 RMK AO2 P0001 T10171028= PANC 291039Z 00000KT 1/2SM R07R/4500V5000FT SN VV008 M02/M02 A2951= PANC 291039Z 00000KT 1/2SM R07R/4500V5000FT SN VV008 M02/M02 A2951 RMK AO2 P0004 T10221022= METAR PANC 291053Z 24003KT 1/2SM R07R/4500V5000FT SN VV008 M02/M03 A2951 RMK SLP995 P0006 T10221028 VIA AUTODIAL=
 Alaska TAF Map

NOAA's National Weather Service
Alaska Aviation Weather Unit
6930 Sand Lake Road
Anchorage, AK 99502-1845
Disclaimer
Credits
Glossary
Privacy Policy
About Us
Career Opportunities
Contact AAWU Internet Services Site last modified: April, 17th 2012